Time;durP1;ratioP1;P1;durP2;ratioP2;P2;SDS_P1;SDS_P2;PMS_P1;PMS_P2;Temp;Humidity;BMP_temperature;BMP_pressure;BME280_temperature;BME280_humidity;BME280_pressure;Samples;Min_cycle;Max_cycle;Signal;HPM_P1;HPM_P2
2021/05/18 00:00:19;;;;;;;19.52;9.07;;;;;;;;;;10299997;28;20036;-69
2021/05/18 00:05:17;;;;;;;20.08;9.30;;;;;;;;;;10300141;28;20075;-69
2021/05/18 00:15:29;;;;;;;16.55;8.63;;;;;;;;;;10313151;28;20079;-68
2021/05/18 00:20:25;;;;;;;23.98;10.00;;;;;;;;;;10298115;28;20040;-68
2021/05/18 00:25:22;;;;;;;17.90;9.27;;;;;;;;;;10298320;28;20071;-69
2021/05/18 00:30:18;;;;;;;23.73;9.57;;;;;;;;;;10300975;28;20037;-69
2021/05/18 00:35:15;;;;;;;19.02;10.65;;;;;;;;;;10306215;28;20098;-70
2021/05/18 00:40:13;;;;;;;20.30;10.02;;;;;;;;;;10308030;28;20466;-69
2021/05/18 00:45:09;;;;;;;18.25;8.73;;;;;;;;;;10308804;28;20482;-70
2021/05/18 00:50:06;;;;;;;18.15;10.77;;;;;;;;;;10298145;28;20045;-69
2021/05/18 00:55:06;;;;;;;20.48;10.23;;;;;;;;;;10309326;28;20082;-69
2021/05/18 01:00:03;;;;;;;20.17;11.52;;;;;;;;;;10306502;28;20044;-69
2021/05/18 01:05:16;;;;;;;20.42;12.23;;;;;;;;;;10305332;28;20513;-69
2021/05/18 01:10:13;;;;;;;21.83;12.20;;;;;;;;;;10302224;28;20045;-69
2021/05/18 01:15:10;;;;;;;18.92;10.90;;;;;;;;;;10298633;28;20433;-70
2021/05/18 01:20:08;;;;;;;23.98;11.77;;;;;;;;;;10307358;28;20490;-70
2021/05/18 01:25:05;;;;;;;19.33;9.15;;;;;;;;;;10296019;28;20090;-68
2021/05/18 01:30:01;;;;;;;18.52;9.95;;;;;;;;;;10295200;28;20576;-69
2021/05/18 01:34:57;;;;;;;22.48;10.55;;;;;;;;;;10304562;28;20048;-68
2021/05/18 01:40:03;;;;;;;20.17;9.10;;;;;;;;;;10296070;28;20049;-68
2021/05/18 01:44:59;;;;;;;15.55;9.02;;;;;;;;;;10309258;28;20074;-68
2021/05/18 01:49:56;;;;;;;14.68;8.25;;;;;;;;;;10302878;28;20091;-70
2021/05/18 01:54:52;;;;;;;17.25;8.43;;;;;;;;;;10303339;28;20436;-69
2021/05/18 01:59:50;;;;;;;16.77;7.78;;;;;;;;;;10308289;28;20029;-70
2021/05/18 02:04:46;;;;;;;15.30;7.50;;;;;;;;;;10284798;28;20072;-66
2021/05/18 02:09:43;;;;;;;18.08;7.75;;;;;;;;;;10295506;28;20500;-68
2021/05/18 02:14:41;;;;;;;13.52;6.78;;;;;;;;;;10294756;28;20135;-66
2021/05/18 02:25:05;;;;;;;12.52;6.65;;;;;;;;;;10294359;28;20072;-66
2021/05/18 02:30:03;;;;;;;15.52;6.68;;;;;;;;;;10293366;28;20048;-68
2021/05/18 02:34:59;;;;;;;12.95;7.35;;;;;;;;;;10295752;28;20107;-67
2021/05/18 02:39:56;;;;;;;17.45;7.45;;;;;;;;;;10296748;28;20037;-69
2021/05/18 02:45:29;;;;;;;25.17;10.43;;;;;;;;;;10303227;28;20044;-69
2021/05/18 02:50:14;;;;;;;17.33;8.23;;;;;;;;;;10311352;28;20103;-68
2021/05/18 02:55:17;;;;;;;17.95;7.97;;;;;;;;;;10302105;28;20048;-68
2021/05/18 03:00:15;;;;;;;16.57;8.53;;;;;;;;;;10309020;28;20497;-68
2021/05/18 03:05:12;;;;;;;14.32;7.95;;;;;;;;;;10304360;28;20482;-68
2021/05/18 03:10:09;;;;;;;15.02;6.30;;;;;;;;;;10289970;28;20099;-67
2021/05/18 03:15:06;;;;;;;14.07;6.22;;;;;;;;;;10302128;28;20414;-68
2021/05/18 03:20:06;;;;;;;16.65;6.30;;;;;;;;;;10304157;28;20502;-69
2021/05/18 03:25:03;;;;;;;13.93;5.97;;;;;;;;;;10306275;28;20434;-67
2021/05/18 03:30:12;;;;;;;14.55;5.93;;;;;;;;;;10309378;28;20564;-70
2021/05/18 03:35:08;;;;;;;14.05;4.35;;;;;;;;;;10311299;28;20512;-68
2021/05/18 03:40:09;;;;;;;15.02;4.80;;;;;;;;;;10301554;28;20040;-69
2021/05/18 04:11:18;;;;;;;9.07;3.92;;;;;;;;;;10303523;28;20045;-69
2021/05/18 04:21:52;;;;;;;12.48;4.35;;;;;;;;;;10304265;28;20048;-69
2021/05/18 05:03:07;;;;;;;11.05;4.63;;;;;;;;;;10306718;28;20041;-69
2021/05/18 05:17:59;;;;;;;11.63;4.35;;;;;;;;;;10303124;28;20139;-69
2021/05/18 05:22:55;;;;;;;11.70;5.07;;;;;;;;;;10306690;28;20036;-69
2021/05/18 05:27:52;;;;;;;14.43;5.35;;;;;;;;;;10305611;28;20399;-68
2021/05/18 05:32:49;;;;;;;13.52;5.82;;;;;;;;;;10301155;28;20056;-68
2021/05/18 05:37:45;;;;;;;9.82;4.93;;;;;;;;;;10306814;28;20102;-69
2021/05/18 05:42:42;;;;;;;15.23;5.38;;;;;;;;;;10288374;28;20070;-69
2021/05/18 05:47:38;;;;;;;15.07;7.25;;;;;;;;;;10302652;28;20205;-69
2021/05/18 05:52:35;;;;;;;16.48;5.70;;;;;;;;;;10292352;28;20055;-70
2021/05/18 05:57:31;;;;;;;13.13;5.80;;;;;;;;;;10297834;28;20076;-70
2021/05/18 06:02:27;;;;;;;10.80;5.45;;;;;;;;;;10303113;28;20090;-70
2021/05/18 06:07:24;;;;;;;13.98;5.88;;;;;;;;;;10299400;28;20049;-70
2021/05/18 06:12:35;;;;;;;16.48;6.35;;;;;;;;;;10288968;28;20072;-70
2021/05/18 06:17:59;;;;;;;12.38;5.43;;;;;;;;;;10297813;28;20044;-70
2021/05/18 06:49:08;;;;;;;11.32;6.13;;;;;;;;;;10300695;28;20051;-69
2021/05/18 06:54:04;;;;;;;10.35;5.47;;;;;;;;;;10298347;28;20044;-68
2021/05/18 07:04:00;;;;;;;11.52;5.40;;;;;;;;;;10302295;28;20037;-70
2021/05/18 07:08:57;;;;;;;11.88;5.18;;;;;;;;;;10303816;28;20045;-70
2021/05/18 07:13:53;;;;;;;10.48;5.93;;;;;;;;;;10304499;28;20105;-70
2021/05/18 07:18:50;;;;;;;15.32;6.85;;;;;;;;;;10301821;28;20722;-70
2021/05/18 07:23:46;;;;;;;15.38;6.35;;;;;;;;;;10302367;28;20106;-70
2021/05/18 07:28:43;;;;;;;11.35;6.22;;;;;;;;;;10310072;28;20040;-70
2021/05/18 07:33:39;;;;;;;13.25;6.00;;;;;;;;;;10311989;28;20033;-69
2021/05/18 07:38:37;;;;;;;12.50;6.38;;;;;;;;;;10313209;28;20044;-70
2021/05/18 07:43:34;;;;;;;13.23;6.13;;;;;;;;;;10311483;28;20371;-70
2021/05/18 07:49:33;;;;;;;10.23;6.32;;;;;;;;;;10304403;28;20048;-70
2021/05/18 07:59:23;;;;;;;12.70;5.82;;;;;;;;;;10296675;28;20051;-70
2021/05/18 08:09:56;;;;;;;8.63;5.25;;;;;;;;;;10271015;28;20056;-70
2021/05/18 08:20:27;;;;;;;8.60;5.07;;;;;;;;;;10307703;28;20097;-70
2021/05/18 08:55:38;;;;;;;8.10;2.88;;;;;;;;;;10296596;28;20053;-70
2021/05/18 10:37:44;;;;;;;5.63;2.35;;;;;;;;;;10296333;28;20052;-70
2021/05/18 10:42:59;;;;;;;6.70;2.83;;;;;;;;;;10284014;28;20113;-70
2021/05/18 10:47:57;;;;;;;7.07;3.17;;;;;;;;;;10305444;28;20067;-70
2021/05/18 10:52:53;;;;;;;8.07;2.63;;;;;;;;;;10298989;28;20045;-70
2021/05/18 10:58:09;;;;;;;4.90;2.22;;;;;;;;;;10306864;28;20092;-70
2021/05/18 11:03:09;;;;;;;6.47;2.13;;;;;;;;;;10307135;28;20045;-70
2021/05/18 11:08:14;;;;;;;8.82;2.72;;;;;;;;;;10307211;28;20097;-69
2021/05/18 11:13:11;;;;;;;7.20;2.55;;;;;;;;;;10302839;28;20162;-70
2021/05/18 11:18:07;;;;;;;11.05;4.20;;;;;;;;;;10306050;28;20049;-70
2021/05/18 11:23:23;;;;;;;8.57;2.80;;;;;;;;;;10302247;28;20102;-69
2021/05/18 11:28:27;;;;;;;5.18;2.53;;;;;;;;;;10299060;28;20051;-71
2021/05/18 11:33:43;;;;;;;5.32;3.10;;;;;;;;;;10303751;28;20514;-71
2021/05/18 11:38:47;;;;;;;7.90;4.97;;;;;;;;;;10302013;28;20054;-68
2021/05/18 11:43:44;;;;;;;;;;;;;;;;;;10301044;28;20506;-69
2021/05/18 11:48:42;;;;;;;8.10;5.30;;;;;;;;;;10300713;28;19974;-69
2021/05/18 11:53:45;;;;;;;8.93;5.30;;;;;;;;;;10295363;28;20041;-69
2021/05/18 11:58:42;;;;;;;;;;;;;;;;;;10309257;28;20040;-70
2021/05/18 12:03:38;;;;;;;10.70;5.72;;;;;;;;;;10308606;28;19970;-70
2021/05/18 12:08:35;;;;;;;8.10;4.82;;;;;;;;;;10295173;28;20083;-70
2021/05/18 12:13:38;;;;;;;12.73;5.13;;;;;;;;;;10299193;28;20055;-70
2021/05/18 12:18:36;;;;;;;7.47;4.65;;;;;;;;;;10301188;28;20048;-70
2021/05/18 12:23:32;;;;;;;7.35;4.10;;;;;;;;;;10303214;28;20171;-70
2021/05/18 12:28:29;;;;;;;5.35;3.03;;;;;;;;;;10306443;28;20526;-70
2021/05/18 12:33:39;;;;;;;9.07;3.13;;;;;;;;;;10301852;28;20075;-70
2021/05/18 12:38:36;;;;;;;4.68;2.40;;;;;;;;;;10300434;28;20096;-70
2021/05/18 12:43:42;;;;;;;4.32;1.83;;;;;;;;;;10295377;28;20125;-70
2021/05/18 12:48:39;;;;;;;4.00;1.40;;;;;;;;;;10308321;28;20460;-70
2021/05/18 12:53:36;;;;;;;2.70;1.38;;;;;;;;;;10308375;28;20537;-70
2021/05/18 12:58:34;;;;;;;3.65;1.20;;;;;;;;;;10307856;28;20620;-70
2021/05/18 13:03:31;;;;;;;4.93;1.40;;;;;;;;;;10303746;28;20068;-70
2021/05/18 13:08:31;;;;;;;2.67;1.27;;;;;;;;;;10306021;28;20055;-70
2021/05/18 13:13:29;;;;;;;3.45;1.42;;;;;;;;;;10303261;28;20045;-70
2021/05/18 13:18:25;;;;;;;2.75;1.50;;;;;;;;;;10292403;28;20055;-70
2021/05/18 13:28:20;;;;;;;2.95;1.40;;;;;;;;;;10304652;28;20500;-69
2021/05/18 13:33:16;;;;;;;3.95;2.28;;;;;;;;;;10290577;28;20472;-70
2021/05/18 13:38:13;;;;;;;7.30;2.30;;;;;;;;;;10304660;28;20045;-70
2021/05/18 13:43:09;;;;;;;5.18;2.50;;;;;;;;;;10301590;28;20055;-70
2021/05/18 13:48:07;;;;;;;5.05;1.95;;;;;;;;;;10305439;28;20045;-70
2021/05/18 13:53:04;;;;;;;4.40;1.92;;;;;;;;;;10300326;28;20063;-70
2021/05/18 13:58:01;;;;;;;2.95;1.70;;;;;;;;;;10305566;28;20072;-70
2021/05/18 14:02:58;;;;;;;5.95;2.10;;;;;;;;;;10286910;28;20045;-70
2021/05/18 14:13:15;;;;;;;5.45;2.17;;;;;;;;;;10291252;28;20084;-69
2021/05/18 14:18:13;;;;;;;4.53;2.30;;;;;;;;;;10297519;28;20047;-70
2021/05/18 14:23:10;;;;;;;4.28;1.90;;;;;;;;;;10294024;28;20068;-69
2021/05/18 14:28:07;;;;;;;3.15;1.38;;;;;;;;;;10296745;28;20045;-70
2021/05/18 14:33:03;;;;;;;7.15;1.98;;;;;;;;;;10302608;28;20057;-69
2021/05/18 14:38:05;;;;;;;3.10;1.33;;;;;;;;;;10294380;28;20400;-69
2021/05/18 14:43:27;;;;;;;3.22;1.10;;;;;;;;;;10295682;28;20138;-70
2021/05/18 14:58:32;;;;;;;2.75;1.20;;;;;;;;;;10294814;28;20037;-69
2021/05/18 15:03:31;;;;;;;3.33;1.42;;;;;;;;;;10303467;28;20098;-69
2021/05/18 15:08:27;;;;;;;2.50;1.00;;;;;;;;;;10289164;28;20056;-69
2021/05/18 15:13:33;;;;;;;2.75;1.10;;;;;;;;;;10294392;28;20486;-69
2021/05/18 15:18:31;;;;;;;2.35;0.98;;;;;;;;;;10294599;28;20056;-71
2021/05/18 15:23:28;;;;;;;3.03;1.25;;;;;;;;;;10292806;28;20040;-69
2021/05/18 15:28:24;;;;;;;3.92;1.05;;;;;;;;;;10285263;28;20048;-68
2021/05/18 15:33:20;;;;;;;2.88;1.30;;;;;;;;;;10285801;28;20048;-71
2021/05/18 15:38:17;;;;;;;3.00;1.27;;;;;;;;;;10302549;28;20049;-69
2021/05/18 15:43:13;;;;;;;3.17;1.80;;;;;;;;;;10302707;28;20048;-71
2021/05/18 15:48:10;;;;;;;3.30;1.40;;;;;;;;;;10297854;28;20168;-69
2021/05/18 15:53:06;;;;;;;2.90;1.40;;;;;;;;;;10300509;28;20037;-69
2021/05/18 15:58:03;;;;;;;4.07;1.52;;;;;;;;;;10301912;28;20560;-68
2021/05/18 16:02:59;;;;;;;6.05;2.38;;;;;;;;;;10306840;28;20045;-70
2021/05/18 16:08:06;;;;;;;4.57;2.10;;;;;;;;;;10290045;28;20048;-71
2021/05/18 16:13:17;;;;;;;5.40;2.38;;;;;;;;;;10297473;28;20045;-70
2021/05/18 16:18:13;;;;;;;7.20;2.80;;;;;;;;;;10298579;28;20040;-71
2021/05/18 16:23:10;;;;;;;5.03;2.00;;;;;;;;;;10298866;28;20049;-70
2021/05/18 16:28:06;;;;;;;4.53;2.55;;;;;;;;;;10309833;28;20040;-70
2021/05/18 16:33:03;;;;;;;5.25;2.72;;;;;;;;;;10302605;28;20185;-70
2021/05/18 16:37:59;;;;;;;4.57;2.42;;;;;;;;;;10295215;28;20795;-70
2021/05/18 16:42:55;;;;;;;4.13;2.33;;;;;;;;;;10300872;28;20098;-70
2021/05/18 16:47:52;;;;;;;4.47;2.30;;;;;;;;;;10301653;28;20044;-70
2021/05/18 16:52:49;;;;;;;5.65;2.97;;;;;;;;;;10305363;28;20052;-70
2021/05/18 16:57:45;;;;;;;3.20;1.90;;;;;;;;;;10296483;28;20135;-70
2021/05/18 17:02:42;;;;;;;7.22;2.67;;;;;;;;;;10289661;28;20064;-70
2021/05/18 17:07:38;;;;;;;5.38;2.92;;;;;;;;;;10303503;28;20147;-70
2021/05/18 17:12:35;;;;;;;4.20;2.75;;;;;;;;;;10294773;28;20139;-69
2021/05/18 17:17:31;;;;;;;6.82;3.20;;;;;;;;;;10291239;28;20089;-69
2021/05/18 17:22:28;;;;;;;7.18;4.35;;;;;;;;;;10308209;28;22649;-71
2021/05/18 17:27:26;;;;;;;6.75;3.53;;;;;;;;;;10285051;28;20064;-70
2021/05/18 17:32:23;;;;;;;7.45;3.33;;;;;;;;;;10300834;28;20056;-70
2021/05/18 17:37:20;;;;;;;5.68;3.17;;;;;;;;;;10307607;28;20036;-71
2021/05/18 17:42:19;;;;;;;5.22;3.72;;;;;;;;;;10304924;28;20044;-70
2021/05/18 17:47:16;;;;;;;8.68;3.80;;;;;;;;;;10308936;28;20040;-71
2021/05/18 17:52:14;;;;;;;6.18;3.08;;;;;;;;;;10306792;28;20044;-70
2021/05/18 17:57:11;;;;;;;6.18;2.83;;;;;;;;;;10304583;28;20105;-69
2021/05/18 18:02:09;;;;;;;6.40;3.10;;;;;;;;;;10306087;28;20521;-70
2021/05/18 18:07:09;;;;;;;5.60;3.45;;;;;;;;;;10293325;28;20044;-70
2021/05/18 18:12:06;;;;;;;5.15;3.28;;;;;;;;;;10305882;28;20074;-70
2021/05/18 18:17:06;;;;;;;7.20;3.60;;;;;;;;;;10297801;28;20387;-70
2021/05/18 18:22:03;;;;;;;7.53;4.45;;;;;;;;;;10296489;28;20452;-70
2021/05/18 18:26:59;;;;;;;5.93;3.20;;;;;;;;;;10298106;28;20050;-70
2021/05/18 18:31:56;;;;;;;5.20;3.00;;;;;;;;;;10300735;28;20036;-70
2021/05/18 18:36:53;;;;;;;5.72;2.47;;;;;;;;;;10301464;28;20458;-70
2021/05/18 18:41:49;;;;;;;4.95;2.80;;;;;;;;;;10295395;28;20045;-70
2021/05/18 18:46:46;;;;;;;5.65;3.47;;;;;;;;;;10299654;28;20044;-70
2021/05/18 18:51:44;;;;;;;8.30;5.25;;;;;;;;;;10296435;28;20041;-70
2021/05/18 18:56:40;;;;;;;5.50;3.97;;;;;;;;;;10290475;28;20098;-70
2021/05/18 19:01:44;;;;;;;5.53;2.72;;;;;;;;;;10286346;28;20119;-71
2021/05/18 19:06:51;;;;;;;5.88;3.25;;;;;;;;;;10289605;28;20114;-70
2021/05/18 19:17:02;;;;;;;6.57;3.45;;;;;;;;;;10296089;28;20037;-70
2021/05/18 19:21:59;;;;;;;9.27;5.18;;;;;;;;;;10303047;28;20041;-70
2021/05/18 19:26:55;;;;;;;7.18;4.50;;;;;;;;;;10311747;28;20044;-70
2021/05/18 19:31:52;;;;;;;9.57;5.38;;;;;;;;;;10300583;28;20045;-70
2021/05/18 19:37:06;;;;;;;10.75;5.75;;;;;;;;;;10312396;28;20119;-70
2021/05/18 19:42:22;;;;;;;11.57;4.95;;;;;;;;;;10300144;28;20044;-70
2021/05/18 19:52:33;;;;;;;9.98;6.32;;;;;;;;;;10297894;28;20336;-70
2021/05/18 19:57:34;;;;;;;9.50;6.30;;;;;;;;;;10302099;28;20094;-70
2021/05/18 20:23:12;;;;;;;11.70;7.07;;;;;;;;;;10296288;28;20049;-70
2021/05/18 20:28:08;;;;;;;15.02;9.32;;;;;;;;;;10299427;28;20094;-69
2021/05/18 20:33:09;;;;;;;13.20;9.00;;;;;;;;;;10298548;28;20045;-67
2021/05/18 20:43:21;;;;;;;13.00;8.18;;;;;;;;;;10287023;28;20114;-69
2021/05/18 20:48:17;;;;;;;13.98;9.07;;;;;;;;;;10291652;28;20136;-69
2021/05/18 20:53:14;;;;;;;11.32;8.32;;;;;;;;;;10294185;28;20509;-69
2021/05/18 20:58:10;;;;;;;12.95;8.55;;;;;;;;;;10300806;28;20432;-69
2021/05/18 21:03:07;;;;;;;12.48;8.75;;;;;;;;;;10301710;28;20435;-69
2021/05/18 21:17:59;;;;;;;14.15;9.60;;;;;;;;;;10299418;28;20054;-69
2021/05/18 21:22:55;;;;;;;13.18;9.98;;;;;;;;;;10301111;28;20087;-69
2021/05/18 21:27:52;;;;;;;18.45;11.23;;;;;;;;;;10298221;28;20099;-69
2021/05/18 21:32:48;;;;;;;13.90;11.48;;;;;;;;;;10292970;28;20114;-69
2021/05/18 21:37:44;;;;;;;15.35;10.70;;;;;;;;;;10307280;28;20040;-69
2021/05/18 21:42:44;;;;;;;16.52;11.88;;;;;;;;;;10293756;28;20045;-69
2021/05/18 21:47:43;;;;;;;14.07;10.98;;;;;;;;;;10299964;28;20045;-69
2021/05/18 21:52:40;;;;;;;13.48;10.35;;;;;;;;;;10300655;28;20045;-69
2021/05/18 21:57:36;;;;;;;14.77;10.48;;;;;;;;;;10301693;28;20049;-69
2021/05/18 22:02:32;;;;;;;17.08;10.65;;;;;;;;;;10303120;28;20098;-68
2021/05/18 22:07:28;;;;;;;17.00;11.55;;;;;;;;;;10298525;28;20044;-67
2021/05/18 22:27:39;;;;;;;17.70;12.45;;;;;;;;;;10299368;28;20041;-67
2021/05/18 22:32:35;;;;;;;15.55;11.50;;;;;;;;;;10293052;28;20061;-67
2021/05/18 22:37:32;;;;;;;16.63;11.27;;;;;;;;;;10296294;28;20056;-68
2021/05/18 22:42:28;;;;;;;18.13;11.32;;;;;;;;;;10289849;28;20094;-69
2021/05/18 22:47:24;;;;;;;18.27;11.93;;;;;;;;;;10308977;28;20548;-68
2021/05/18 22:52:21;;;;;;;14.07;10.27;;;;;;;;;;10306321;28;20470;-68
2021/05/18 22:57:18;;;;;;;17.95;12.60;;;;;;;;;;10305365;28;20136;-70
2021/05/18 23:02:14;;;;;;;15.48;10.77;;;;;;;;;;10305896;28;20452;-69
2021/05/18 23:07:10;;;;;;;16.98;12.18;;;;;;;;;;10300750;28;20086;-70
2021/05/18 23:12:07;;;;;;;14.30;11.15;;;;;;;;;;10309943;28;20074;-69
2021/05/18 23:17:03;;;;;;;16.10;11.52;;;;;;;;;;10305183;28;20831;-69
2021/05/18 23:22:00;;;;;;;12.90;10.48;;;;;;;;;;10294597;28;20639;-67
2021/05/18 23:26:56;;;;;;;15.45;10.75;;;;;;;;;;10306336;28;20045;-67
2021/05/18 23:31:52;;;;;;;13.98;11.15;;;;;;;;;;10303807;28;20045;-66
2021/05/18 23:36:49;;;;;;;15.25;10.65;;;;;;;;;;10310434;28;20041;-67
2021/05/18 23:41:45;;;;;;;16.83;11.30;;;;;;;;;;10304648;28;20091;-66
2021/05/18 23:46:41;;;;;;;15.27;10.90;;;;;;;;;;10297083;28;20071;-68
2021/05/18 23:51:39;;;;;;;18.40;11.45;;;;;;;;;;10301808;28;20044;-68
2021/05/18 23:56:36;;;;;;;15.77;10.55;;;;;;;;;;10292872;28;20049;-66
